Time;durP1;ratioP1;P1;durP2;ratioP2;P2;SDS_P1;SDS_P2;PMS_P1;PMS_P2;Temp;Humidity;BMP_temperature;BMP_pressure;BME280_temperature;BME280_humidity;BME280_pressure;Samples;Min_cycle;Max_cycle;Signal;HPM_P1;HPM_P2
2023/08/22 00:01:18;;;;;;;5.30;4.27;;;22.90;84.00;;;;;;5075613;28;20472;-60
2023/08/22 00:03:46;;;;;;;7.73;4.23;;;22.90;83.90;;;;;;5075689;28;20447;-60
2023/08/22 00:06:12;;;;;;;4.20;3.80;;;22.90;84.20;;;;;;5076261;28;20525;-60
2023/08/22 00:08:41;;;;;;;7.40;4.47;;;22.90;84.30;;;;;;5075583;28;20448;-60
2023/08/22 00:11:07;;;;;;;7.93;5.30;;;22.90;84.50;;;;;;5075143;28;20990;-60
2023/08/22 00:13:34;;;;;;;5.97;5.17;;;22.80;84.70;;;;;;5075676;28;20466;-60
2023/08/22 00:16:01;;;;;;;5.80;5.07;;;22.80;84.80;;;;;;5075437;28;20440;-60
2023/08/22 00:18:28;;;;;;;5.27;4.77;;;22.90;85.10;;;;;;5075276;28;20490;-60
2023/08/22 00:20:54;;;;;;;5.67;5.17;;;22.80;84.90;;;;;;5075031;28;20563;-60
2023/08/22 00:23:21;;;;;;;6.80;5.27;;;22.90;85.30;;;;;;5075401;28;20429;-60
2023/08/22 00:25:50;;;;;;;12.70;7.13;;;23.00;85.30;;;;;;5074869;28;21030;-60
2023/08/22 00:28:17;;;;;;;5.97;4.70;;;23.00;85.10;;;;;;5074801;28;20935;-60
2023/08/22 00:30:43;;;;;;;9.93;5.83;;;23.00;85.00;;;;;;5075034;28;20500;-60
2023/08/22 00:33:10;;;;;;;8.50;5.87;;;22.90;84.90;;;;;;5075053;28;20445;-60
2023/08/22 00:35:37;;;;;;;7.10;6.37;;;22.90;84.80;;;;;;5074778;28;20494;-60
2023/08/22 00:38:04;;;;;;;7.03;5.30;;;22.80;84.70;;;;;;5074641;28;20963;-60
2023/08/22 00:40:30;;;;;;;6.70;5.57;;;22.80;85.00;;;;;;5074835;28;20447;-60
2023/08/22 00:42:58;;;;;;;6.60;5.07;;;22.80;85.30;;;;;;5074864;28;20449;-60
2023/08/22 00:45:25;;;;;;;6.00;5.10;;;22.80;85.40;;;;;;5074561;28;21017;-60
2023/08/22 00:47:52;;;;;;;5.27;4.77;;;22.80;85.40;;;;;;5073650;28;20476;-60
2023/08/22 00:50:19;;;;;;;6.73;5.30;;;22.70;85.00;;;;;;5074671;28;20451;-60
2023/08/22 00:52:46;;;;;;;10.30;6.33;;;22.70;85.50;;;;;;5074257;28;20981;-60
2023/08/22 00:55:13;;;;;;;7.73;5.67;;;22.70;86.00;;;;;;5074569;28;20823;-60
2023/08/22 00:57:40;;;;;;;6.07;5.47;;;22.60;86.00;;;;;;5074472;28;20440;-60
2023/08/22 01:00:10;;;;;;;8.17;6.20;;;22.60;85.90;;;;;;5074467;28;20440;-60
2023/08/22 01:02:38;;;;;;;6.30;5.70;;;22.50;85.70;;;;;;5074056;28;20973;-60
2023/08/22 01:05:05;;;;;;;9.50;5.47;;;22.50;86.20;;;;;;5074354;28;20436;-60
2023/08/22 01:07:36;;;;;;;6.40;5.87;;;22.40;86.70;;;;;;5074279;28;20477;-60
2023/08/22 01:10:07;;;;;;;9.97;6.23;;;22.40;86.80;;;;;;5074331;28;20436;-60
2023/08/22 01:12:40;;;;;;;7.03;6.30;;;22.40;87.10;;;;;;5074216;28;20506;-60
2023/08/22 01:15:15;;;;;;;6.00;5.40;;;22.30;86.70;;;;;;5074038;28;20425;-60
2023/08/22 01:17:43;;;;;;;10.83;5.73;;;22.20;86.30;;;;;;5074265;28;20416;-60
2023/08/22 01:20:12;;;;;;;5.73;5.20;;;22.20;86.50;;;;;;5074166;28;20456;-60
2023/08/22 01:22:40;;;;;;;7.50;6.00;;;22.10;86.40;;;;;;5073674;28;20564;-60
2023/08/22 01:25:07;;;;;;;8.00;5.90;;;22.10;87.20;;;;;;5073878;28;20444;-60
2023/08/22 01:27:40;;;;;;;8.27;5.30;;;22.10;87.40;;;;;;5073606;28;20516;-60
2023/08/22 01:30:15;;;;;;;8.57;6.20;;;22.10;87.50;;;;;;5073978;28;20774;-60
2023/08/22 01:32:48;;;;;;;7.20;6.40;;;22.00;87.20;;;;;;5073765;28;20460;-60
2023/08/22 01:35:17;;;;;;;8.33;6.30;;;21.90;87.00;;;;;;5074339;28;20453;-60
2023/08/22 01:37:46;;;;;;;5.87;5.27;;;21.90;87.80;;;;;;5074590;28;20444;-60
2023/08/22 01:40:13;;;;;;;7.53;5.70;;;21.90;88.10;;;;;;5073767;28;20444;-60
2023/08/22 01:42:40;;;;;;;6.13;5.53;;;21.80;88.00;;;;;;5073369;28;21004;-60
2023/08/22 01:45:07;;;;;;;7.60;5.93;;;21.80;88.30;;;;;;5073705;28;20441;-60
2023/08/22 01:47:35;;;;;;;8.10;5.90;;;21.80;88.40;;;;;;5073643;28;20534;-60
2023/08/22 01:50:02;;;;;;;11.37;5.53;;;21.80;88.40;;;;;;5073613;28;20453;-60
2023/08/22 01:52:29;;;;;;;7.30;5.73;;;21.70;88.60;;;;;;5073140;28;20838;-60
2023/08/22 01:54:57;;;;;;;7.90;7.10;;;21.70;89.10;;;;;;5073497;28;20449;-60
2023/08/22 01:57:23;;;;;;;7.03;5.57;;;21.70;89.20;;;;;;5073541;28;20440;-60
2023/08/22 01:59:50;;;;;;;5.77;5.27;;;21.70;89.40;;;;;;5073276;28;20436;-60
2023/08/22 02:02:17;;;;;;;7.13;6.37;;;21.60;89.30;;;;;;5073508;28;20513;-60
2023/08/22 02:04:43;;;;;;;7.30;5.73;;;21.60;89.10;;;;;;5074255;28;20460;-60
2023/08/22 02:07:10;;;;;;;6.77;6.07;;;21.60;89.90;;;;;;5073354;28;20483;-60
2023/08/22 02:09:37;;;;;;;7.50;6.47;;;21.60;89.80;;;;;;5073336;28;20455;-60
2023/08/22 02:12:06;;;;;;;7.50;6.03;;;21.50;89.50;;;;;;5073312;28;20460;-60
2023/08/22 02:14:33;;;;;;;6.73;5.77;;;21.50;89.60;;;;;;5073286;28;20437;-60
2023/08/22 02:17:00;;;;;;;7.10;5.40;;;21.50;89.90;;;;;;5073330;28;20444;-60
2023/08/22 02:19:26;;;;;;;5.57;5.10;;;21.50;90.00;;;;;;5072953;28;20456;-60
2023/08/22 02:21:53;;;;;;;8.00;5.67;;;21.50;89.90;;;;;;5072764;28;21029;-60
2023/08/22 02:24:20;;;;;;;6.87;6.10;;;21.50;89.80;;;;;;5073409;28;20509;-60
2023/08/22 02:26:47;;;;;;;6.37;4.83;;;21.40;89.80;;;;;;5072862;28;21024;-60
2023/08/22 02:29:15;;;;;;;6.10;5.60;;;21.40;90.10;;;;;;5072914;28;20813;-60
2023/08/22 02:31:41;;;;;;;8.60;5.73;;;21.40;90.00;;;;;;5073132;28;20471;-60
2023/08/22 02:34:08;;;;;;;7.70;5.70;;;21.30;89.90;;;;;;5073154;28;20447;-60
2023/08/22 02:36:35;;;;;;;6.37;5.70;;;21.30;90.10;;;;;;5072971;28;20441;-60
2023/08/22 02:39:03;;;;;;;12.10;6.17;;;21.30;90.10;;;;;;5073334;28;20444;-60
2023/08/22 02:41:30;;;;;;;8.70;5.13;;;21.20;90.20;;;;;;5073235;28;20468;-60
2023/08/22 02:43:56;;;;;;;6.47;5.80;;;21.20;90.20;;;;;;5073060;28;20456;-60
2023/08/22 02:46:25;;;;;;;7.00;6.30;;;21.10;90.50;;;;;;5072704;28;20974;-60
2023/08/22 02:48:51;;;;;;;9.07;5.30;;;21.10;90.30;;;;;;5073070;28;20452;-60
2023/08/22 02:51:18;;;;;;;7.80;5.27;;;21.10;90.40;;;;;;5073026;28;20461;-59
2023/08/22 02:53:45;;;;;;;7.60;5.13;;;21.00;90.50;;;;;;5072907;28;20441;-60
2023/08/22 02:56:12;;;;;;;7.67;4.90;;;21.00;90.50;;;;;;5073208;28;20467;-59
2023/08/22 02:58:38;;;;;;;6.37;5.77;;;21.00;90.70;;;;;;5073001;28;20448;-59
2023/08/22 03:01:07;;;;;;;7.17;5.87;;;21.00;90.70;;;;;;5072934;28;20471;-59
2023/08/22 03:03:35;;;;;;;7.80;5.70;;;21.00;90.70;;;;;;5072945;28;20884;-59
2023/08/22 03:06:02;;;;;;;6.20;5.60;;;21.00;90.70;;;;;;5073013;28;20445;-59
2023/08/22 03:08:29;;;;;;;5.97;4.93;;;21.00;90.70;;;;;;5073114;28;20491;-59
2023/08/22 03:11:00;;;;;;;5.73;5.00;;;21.00;90.70;;;;;;5073510;28;20997;-59
2023/08/22 03:13:28;;;;;;;7.03;5.30;;;21.00;90.80;;;;;;5076822;28;20429;-59
2023/08/22 03:15:55;;;;;;;6.00;5.40;;;21.00;90.90;;;;;;5076214;28;20861;-59
2023/08/22 03:18:22;;;;;;;6.30;4.87;;;20.90;90.70;;;;;;5076255;28;20816;-60
2023/08/22 03:20:50;;;;;;;7.10;5.40;;;20.90;90.70;;;;;;5076392;28;20487;-60
2023/08/22 03:23:17;;;;;;;6.87;5.67;;;20.90;91.00;;;;;;5076420;28;20845;-59
2023/08/22 03:25:43;;;;;;;7.40;6.60;;;20.90;90.90;;;;;;5076324;28;20446;-60
2023/08/22 03:28:10;;;;;;;7.00;6.03;;;20.90;90.90;;;;;;5076207;28;20480;-60
2023/08/22 03:30:36;;;;;;;5.90;5.40;;;20.80;90.90;;;;;;5076185;28;20602;-60
2023/08/22 03:33:03;;;;;;;7.40;6.27;;;20.80;91.00;;;;;;5076228;28;20462;-60
2023/08/22 03:35:30;;;;;;;6.63;5.53;;;20.80;91.00;;;;;;5076129;28;20440;-60
2023/08/22 03:38:00;;;;;;;8.47;6.30;;;20.80;91.10;;;;;;5075779;28;20961;-60
2023/08/22 03:40:27;;;;;;;9.20;5.90;;;20.70;91.00;;;;;;5075934;28;20441;-60
2023/08/22 03:42:54;;;;;;;5.90;5.40;;;20.70;91.10;;;;;;5076024;28;20440;-60
2023/08/22 03:45:20;;;;;;;6.07;5.57;;;20.70;91.10;;;;;;5076049;28;20452;-60
2023/08/22 03:47:47;;;;;;;6.70;6.10;;;20.70;91.10;;;;;;5075641;28;20857;-60
2023/08/22 03:50:14;;;;;;;6.40;5.90;;;20.70;91.20;;;;;;5075995;28;20452;-60
2023/08/22 03:52:40;;;;;;;6.20;5.70;;;20.70;91.30;;;;;;5075803;28;20464;-60
2023/08/22 03:55:09;;;;;;;9.53;6.43;;;20.70;91.40;;;;;;5075818;28;20436;-60
2023/08/22 03:57:35;;;;;;;6.60;6.00;;;20.70;91.50;;;;;;5075718;28;20441;-60
2023/08/22 04:00:03;;;;;;;6.77;6.00;;;20.60;91.50;;;;;;5075689;28;20444;-60
2023/08/22 04:02:30;;;;;;;8.70;7.13;;;20.60;91.40;;;;;;5075583;28;20469;-60
2023/08/22 04:04:57;;;;;;;8.70;6.13;;;20.60;91.50;;;;;;5075618;28;20449;-60
2023/08/22 04:07:23;;;;;;;8.00;5.40;;;20.60;91.50;;;;;;5075258;28;20875;-60
2023/08/22 04:09:50;;;;;;;5.93;5.33;;;20.60;91.50;;;;;;5075241;28;20942;-60
2023/08/22 04:12:18;;;;;;;7.50;5.47;;;20.60;91.50;;;;;;5075988;28;20460;-60
2023/08/22 04:14:44;;;;;;;9.33;5.20;;;20.60;91.50;;;;;;5075514;28;20441;-60
2023/08/22 04:17:11;;;;;;;6.33;5.40;;;20.50;91.60;;;;;;5075111;28;20961;-60
2023/08/22 04:19:38;;;;;;;7.60;5.60;;;20.50;91.60;;;;;;5075008;28;20441;-60
2023/08/22 04:22:05;;;;;;;6.50;5.40;;;20.50;91.60;;;;;;5074816;28;20896;-60
2023/08/22 04:24:32;;;;;;;6.73;5.20;;;20.50;91.80;;;;;;5075310;28;20441;-60
2023/08/22 04:26:58;;;;;;;6.47;5.90;;;20.50;91.80;;;;;;5075143;28;20498;-60
2023/08/22 04:29:26;;;;;;;7.47;5.03;;;20.40;91.80;;;;;;5074808;28;21004;-59
2023/08/22 04:31:53;;;;;;;6.37;5.77;;;20.40;91.90;;;;;;5075081;28;20485;-59
2023/08/22 04:34:20;;;;;;;7.10;5.30;;;20.40;91.70;;;;;;5075032;28;20464;-59
2023/08/22 04:36:46;;;;;;;7.53;6.10;;;20.30;91.70;;;;;;5075113;28;20444;-59
2023/08/22 04:39:13;;;;;;;6.17;5.50;;;20.30;92.00;;;;;;5074958;28;20449;-59
2023/08/22 04:41:39;;;;;;;6.70;6.00;;;20.30;92.00;;;;;;5075105;28;20461;-59
2023/08/22 04:44:06;;;;;;;5.33;4.83;;;20.20;91.90;;;;;;5074899;28;20479;-59
2023/08/22 04:46:34;;;;;;;6.43;5.13;;;20.20;91.90;;;;;;5074857;28;20449;-59
2023/08/22 04:49:01;;;;;;;6.37;5.40;;;20.20;92.00;;;;;;5074415;28;20484;-59
2023/08/22 04:51:27;;;;;;;6.53;5.90;;;20.20;92.10;;;;;;5074639;28;20827;-59
2023/08/22 04:53:54;;;;;;;12.00;6.70;;;20.20;92.40;;;;;;5074401;28;20842;-59
2023/08/22 04:56:22;;;;;;;10.50;7.13;;;20.20;92.50;;;;;;5074563;28;20552;-59
2023/08/22 04:58:48;;;;;;;7.60;6.73;;;20.20;92.60;;;;;;5074557;28;20440;-59
2023/08/22 05:01:15;;;;;;;7.33;5.90;;;20.20;92.70;;;;;;5074483;28;20469;-59
2023/08/22 05:03:43;;;;;;;7.50;6.17;;;20.20;92.60;;;;;;5074302;28;20443;-59
2023/08/22 05:06:10;;;;;;;7.87;5.77;;;20.20;92.70;;;;;;5074074;28;20444;-59
2023/08/22 05:08:36;;;;;;;7.67;6.87;;;20.20;92.70;;;;;;5074680;28;20480;-59
2023/08/22 05:11:03;;;;;;;9.00;6.63;;;20.10;92.70;;;;;;5074461;28;20461;-59
2023/08/22 05:13:30;;;;;;;8.07;6.63;;;20.20;93.10;;;;;;5074314;28;20441;-59
2023/08/22 05:15:56;;;;;;;12.93;9.30;;;20.20;93.10;;;;;;5074384;28;20467;-59
2023/08/22 05:18:23;;;;;;;14.07;8.10;;;20.20;93.30;;;;;;5074179;28;20499;-59
2023/08/22 05:20:52;;;;;;;7.90;7.10;;;20.20;93.40;;;;;;5073764;28;20472;-60
2023/08/22 05:23:19;;;;;;;7.30;6.60;;;20.30;93.40;;;;;;5074112;28;20429;-59
2023/08/22 05:25:46;;;;;;;8.67;6.93;;;20.30;93.60;;;;;;5073771;28;20969;-59
2023/08/22 05:28:12;;;;;;;8.60;7.90;;;20.40;93.90;;;;;;5073969;28;20473;-59
2023/08/22 05:30:39;;;;;;;8.57;7.77;;;20.40;94.10;;;;;;5073564;28;21034;-59
2023/08/22 05:33:06;;;;;;;9.17;7.30;;;20.50;94.20;;;;;;5073366;28;20839;-59
2023/08/22 05:35:33;;;;;;;9.00;7.07;;;20.50;94.20;;;;;;5073645;28;20467;-60
2023/08/22 05:38:01;;;;;;;10.80;7.17;;;20.60;94.30;;;;;;5073853;28;20444;-59
2023/08/22 05:40:29;;;;;;;9.57;8.57;;;20.60;94.30;;;;;;5073696;28;20444;-59
2023/08/22 05:42:56;;;;;;;8.60;7.70;;;20.60;94.30;;;;;;5073572;28;20456;-59
2023/08/22 05:45:23;;;;;;;8.10;7.33;;;20.60;94.30;;;;;;5073710;28;20444;-59
2023/08/22 05:47:49;;;;;;;11.30;7.50;;;20.70;94.40;;;;;;5073543;28;20480;-59
2023/08/22 05:50:16;;;;;;;7.80;7.13;;;20.70;94.40;;;;;;5073566;28;20444;-59
2023/08/22 05:52:43;;;;;;;8.57;7.77;;;20.70;94.40;;;;;;5073430;28;20461;-59
2023/08/22 05:55:12;;;;;;;8.20;7.50;;;20.70;94.40;;;;;;5073224;28;20453;-59
2023/08/22 05:57:38;;;;;;;10.13;8.70;;;20.70;94.40;;;;;;5073460;28;20475;-59
2023/08/22 06:00:08;;;;;;;11.63;7.60;;;20.80;94.40;;;;;;5073585;28;20441;-59
2023/08/22 06:02:35;;;;;;;9.60;8.80;;;20.80;94.40;;;;;;5073065;28;21041;-59
2023/08/22 06:05:02;;;;;;;9.73;8.83;;;20.90;94.50;;;;;;5073468;28;20826;-59
2023/08/22 06:07:29;;;;;;;10.00;9.00;;;20.90;94.60;;;;;;5073385;28;20444;-59
2023/08/22 06:09:56;;;;;;;13.90;8.80;;;20.90;94.80;;;;;;5073417;28;20454;-59
2023/08/22 06:12:24;;;;;;;11.30;9.23;;;21.00;94.90;;;;;;5073311;28;20463;-59
2023/08/22 06:14:50;;;;;;;17.00;10.47;;;21.00;95.00;;;;;;5073416;28;20466;-59
2023/08/22 06:17:17;;;;;;;19.47;11.00;;;21.00;95.20;;;;;;5073070;28;20903;-60
2023/08/22 06:19:44;;;;;;;22.83;10.47;;;21.10;94.90;;;;;;5073129;28;20965;-60
2023/08/22 06:22:10;;;;;;;28.33;11.17;;;21.10;94.80;;;;;;5073099;28;20475;-59
2023/08/22 06:24:37;;;;;;;24.87;10.53;;;21.20;94.90;;;;;;5073569;28;20449;-59
2023/08/22 06:27:04;;;;;;;42.60;11.00;;;21.10;95.10;;;;;;5073343;28;20437;-59
2023/08/22 06:29:33;;;;;;;27.27;10.50;;;21.20;95.00;;;;;;5073226;28;20491;-59
2023/08/22 06:32:00;;;;;;;20.77;11.03;;;21.20;94.90;;;;;;5073366;28;20472;-59
2023/08/22 06:34:27;;;;;;;24.63;10.83;;;21.30;95.50;;;;;;5073274;28;20520;-59
2023/08/22 06:36:53;;;;;;;34.00;11.93;;;21.30;95.40;;;;;;5073309;28;20456;-59
2023/08/22 06:39:20;;;;;;;27.17;11.10;;;21.30;95.20;;;;;;5073199;28;20448;-59
2023/08/22 06:41:47;;;;;;;18.17;11.53;;;21.40;95.00;;;;;;5073091;28;20464;-59
2023/08/22 06:44:14;;;;;;;22.97;11.57;;;21.40;94.70;;;;;;5073167;28;20441;-59
2023/08/22 06:46:42;;;;;;;17.63;10.77;;;21.50;94.90;;;;;;5074988;28;20451;-59
2023/08/22 06:49:09;;;;;;;28.57;12.03;;;21.60;94.90;;;;;;5076980;28;20476;-59
2023/08/22 06:51:36;;;;;;;15.37;10.83;;;21.70;94.20;;;;;;5077131;28;20471;-59
2023/08/22 06:54:02;;;;;;;16.07;10.20;;;21.80;94.20;;;;;;5077048;28;20445;-59
2023/08/22 06:56:29;;;;;;;12.20;10.80;;;21.90;93.80;;;;;;5077075;28;20468;-59
2023/08/22 06:58:56;;;;;;;17.50;10.00;;;22.00;93.70;;;;;;5076709;28;20988;-59
2023/08/22 07:01:23;;;;;;;21.50;10.00;;;22.10;93.60;;;;;;5076681;28;20994;-59
2023/08/22 07:03:51;;;;;;;19.67;9.80;;;22.30;93.10;;;;;;5076997;28;20452;-59
2023/08/22 07:06:17;;;;;;;22.43;10.00;;;22.30;92.90;;;;;;5076796;28;20452;-59
2023/08/22 07:08:44;;;;;;;19.50;9.90;;;22.50;92.80;;;;;;5076676;28;20480;-59
2023/08/22 07:11:10;;;;;;;20.57;9.17;;;22.60;92.70;;;;;;5076558;28;20467;-59
2023/08/22 07:13:37;;;;;;;23.10;9.90;;;22.70;92.60;;;;;;5076674;28;20445;-59
2023/08/22 07:16:04;;;;;;;21.23;10.10;;;22.80;92.20;;;;;;5076598;28;20440;-59
2023/08/22 07:18:31;;;;;;;25.93;11.03;;;22.90;92.00;;;;;;5076636;28;20443;-59
2023/08/22 07:21:04;;;;;;;27.63;10.20;;;23.10;91.90;;;;;;5076739;28;20479;-59
2023/08/22 07:23:31;;;;;;;19.33;8.83;;;23.20;91.50;;;;;;5076446;28;20446;-59
2023/08/22 07:25:58;;;;;;;23.60;9.10;;;23.30;91.50;;;;;;5076510;28;20448;-59
2023/08/22 07:28:24;;;;;;;21.07;10.00;;;23.30;91.40;;;;;;5076439;28;20484;-59
2023/08/22 07:30:51;;;;;;;20.13;9.80;;;23.40;91.70;;;;;;5076384;28;20460;-59
2023/08/22 07:33:18;;;;;;;22.43;10.10;;;23.40;90.90;;;;;;5075985;28;20797;-59
2023/08/22 07:35:45;;;;;;;23.97;10.50;;;23.50;91.00;;;;;;5076410;28;20467;-59
2023/08/22 07:38:13;;;;;;;22.33;10.33;;;23.50;91.00;;;;;;5076319;28;20441;-59
2023/08/22 07:40:41;;;;;;;19.63;10.00;;;23.60;90.50;;;;;;5076273;28;20448;-60
2023/08/22 07:43:08;;;;;;;16.93;10.87;;;23.70;90.10;;;;;;5076064;28;20441;-60
2023/08/22 07:45:35;;;;;;;16.33;10.60;;;23.90;90.00;;;;;;5076180;28;20443;-60
2023/08/22 07:48:02;;;;;;;16.60;9.57;;;24.10;88.70;;;;;;5076819;28;20441;-60
2023/08/22 07:50:29;;;;;;;19.43;11.30;;;24.30;87.50;;;;;;5076510;28;20948;-60
2023/08/22 07:52:55;;;;;;;17.90;12.00;;;24.50;87.20;;;;;;5076599;28;20844;-60
2023/08/22 07:55:24;;;;;;;17.43;10.30;;;24.80;86.90;;;;;;5078376;28;20444;-60
2023/08/22 07:57:51;;;;;;;14.30;9.60;;;25.00;84.90;;;;;;5076552;28;20453;-60
2023/08/22 08:00:18;;;;;;;19.10;8.77;;;25.20;82.40;;;;;;5076049;28;20441;-59
2023/08/22 08:02:46;;;;;;;18.50;8.70;;;25.40;81.10;;;;;;5075870;28;20522;-60
2023/08/22 08:05:13;;;;;;;15.77;9.20;;;25.70;80.00;;;;;;5075805;28;20444;-60
2023/08/22 08:07:40;;;;;;;13.83;9.37;;;26.00;78.00;;;;;;5075802;28;20448;-59
2023/08/22 08:10:07;;;;;;;18.20;9.07;;;26.00;76.70;;;;;;5075647;28;21021;-59
2023/08/22 08:12:35;;;;;;;10.13;8.13;;;26.10;76.80;;;;;;5075182;28;20472;-59
2023/08/22 08:15:03;;;;;;;17.47;8.17;;;26.20;75.80;;;;;;5075187;28;20934;-59
2023/08/22 08:17:29;;;;;;;10.80;7.57;;;26.30;74.20;;;;;;5075506;28;20536;-59
2023/08/22 08:19:56;;;;;;;13.33;8.53;;;26.40;73.00;;;;;;5075471;28;20440;-59
2023/08/22 08:22:23;;;;;;;20.40;9.80;;;26.40;73.40;;;;;;5075053;28;20514;-59
2023/08/22 08:24:50;;;;;;;14.03;7.83;;;26.50;73.20;;;;;;5075012;28;20444;-60
2023/08/22 08:27:16;;;;;;;9.93;7.87;;;26.70;71.90;;;;;;5075241;28;20441;-60
2023/08/22 08:29:44;;;;;;;12.63;6.07;;;26.80;71.00;;;;;;5075231;28;20492;-60
2023/08/22 08:32:11;;;;;;;14.63;8.10;;;27.10;70.70;;;;;;5075095;28;20473;-60
2023/08/22 08:34:38;;;;;;;13.10;6.93;;;27.30;68.60;;;;;;5075067;28;20487;-60
2023/08/22 08:37:05;;;;;;;13.57;5.87;;;27.50;65.80;;;;;;5075062;28;20444;-60
2023/08/22 08:39:31;;;;;;;13.17;8.67;;;27.70;66.40;;;;;;5075736;28;20462;-59
2023/08/22 08:42:04;;;;;;;12.60;7.40;;;28.00;65.10;;;;;;5074827;28;20824;-60
2023/08/22 08:44:33;;;;;;;11.83;6.23;;;28.20;63.80;;;;;;5074999;28;20847;-60
2023/08/22 08:47:02;;;;;;;10.27;7.37;;;28.60;62.40;;;;;;5074861;28;20440;-60
2023/08/22 08:49:32;;;;;;;9.53;5.57;;;28.90;60.60;;;;;;5074730;28;20476;-60
2023/08/22 08:52:01;;;;;;;17.47;6.90;;;29.00;58.80;;;;;;5074653;28;20495;-60
2023/08/22 08:54:28;;;;;;;10.97;6.10;;;29.10;58.60;;;;;;5074723;28;20455;-60
2023/08/22 08:56:55;;;;;;;12.00;5.80;;;29.40;58.50;;;;;;5074682;28;20498;-59
2023/08/22 08:59:22;;;;;;;7.03;5.20;;;29.70;56.30;;;;;;5074274;28;20934;-59
2023/08/22 09:01:50;;;;;;;12.93;6.77;;;30.00;55.90;;;;;;5074161;28;20994;-59
2023/08/22 09:04:19;;;;;;;14.37;7.00;;;30.30;55.00;;;;;;5074514;28;20440;-59
2023/08/22 09:06:46;;;;;;;13.30;6.67;;;30.50;53.70;;;;;;5074456;28;20475;-59
2023/08/22 09:09:13;;;;;;;7.00;5.17;;;30.50;53.70;;;;;;5073081;28;21020;-59
2023/08/22 09:11:42;;;;;;;10.93;6.33;;;30.60;54.90;;;;;;5074408;28;20455;-59
2023/08/22 09:14:09;;;;;;;6.53;3.83;;;30.70;54.50;;;;;;5074374;28;20472;-59
2023/08/22 09:16:36;;;;;;;7.27;5.10;;;30.80;54.30;;;;;;5073972;28;20447;-59
2023/08/22 09:19:03;;;;;;;5.70;3.53;;;30.80;52.50;;;;;;5073812;28;20436;-59
2023/08/22 09:21:32;;;;;;;5.80;4.23;;;30.70;52.50;;;;;;5073852;28;20475;-59
2023/08/22 09:24:08;;;;;;;7.03;4.13;;;30.70;52.80;;;;;;5074123;28;20455;-59
2023/08/22 09:26:35;;;;;;;8.60;4.33;;;30.70;52.80;;;;;;5074026;28;20450;-59
2023/08/22 09:29:05;;;;;;;6.13;4.10;;;30.80;51.30;;;;;;5073918;28;20476;-59
2023/08/22 09:31:32;;;;;;;7.70;5.27;;;30.80;51.20;;;;;;5073892;28;20529;-59
2023/08/22 09:33:59;;;;;;;11.27;5.20;;;31.00;50.50;;;;;;5073904;28;20440;-60
2023/08/22 09:36:26;;;;;;;7.40;4.90;;;31.10;49.80;;;;;;5073849;28;20442;-60
2023/08/22 09:38:56;;;;;;;5.83;5.30;;;31.10;48.10;;;;;;5073675;28;20963;-59
2023/08/22 09:41:23;;;;;;;13.07;5.93;;;31.20;49.20;;;;;;5073938;28;20471;-60
2023/08/22 09:43:54;;;;;;;7.30;5.07;;;31.20;48.80;;;;;;5073968;28;20509;-59
2023/08/22 09:46:21;;;;;;;9.37;4.50;;;31.20;50.10;;;;;;5073513;28;20941;-58
2023/08/22 09:48:49;;;;;;;6.50;4.47;;;31.20;48.00;;;;;;5073554;28;20537;-58
2023/08/22 09:51:19;;;;;;;8.20;4.50;;;31.10;48.10;;;;;;5073797;28;20467;-59
2023/08/22 09:53:47;;;;;;;5.90;3.57;;;31.10;46.70;;;;;;5073719;28;20455;-59
2023/08/22 09:56:15;;;;;;;5.50;4.27;;;31.10;46.80;;;;;;5073684;28;20444;-59
2023/08/22 09:58:43;;;;;;;11.43;6.23;;;31.30;46.40;;;;;;5073675;28;20455;-59
2023/08/22 10:01:11;;;;;;;8.20;5.80;;;31.30;45.90;;;;;;5073307;28;21068;-58
2023/08/22 10:03:38;;;;;;;7.90;5.73;;;31.20;46.60;;;;;;5073666;28;20872;-58
2023/08/22 10:06:06;;;;;;;9.87;5.53;;;31.20;46.10;;;;;;5073557;28;20444;-58
2023/08/22 10:08:33;;;;;;;9.20;5.60;;;31.30;47.50;;;;;;5073162;28;20942;-59
2023/08/22 10:11:00;;;;;;;6.50;5.43;;;31.40;47.20;;;;;;5073553;28;20835;-58
2023/08/22 10:13:29;;;;;;;11.07;4.90;;;31.70;47.40;;;;;;5073505;28;20447;-59
2023/08/22 10:15:58;;;;;;;8.77;4.30;;;32.10;46.30;;;;;;5074005;28;20528;-59
2023/08/22 10:18:25;;;;;;;6.60;4.17;;;32.30;46.00;;;;;;5073465;28;20829;-58
2023/08/22 10:20:54;;;;;;;8.10;3.50;;;32.50;43.40;;;;;;5072943;28;20460;-60
2023/08/22 10:23:56;;;;;;;5.67;3.47;;;32.20;42.70;;;;;;5073484;28;20449;-59
2023/08/22 10:26:26;;;;;;;4.93;2.90;;;31.80;43.20;;;;;;5073457;28;20436;-59
2023/08/22 10:29:15;;;;;;;12.40;4.07;;;31.80;44.10;;;;;;5073293;28;20420;-59
2023/08/22 10:32:19;;;;;;;7.30;4.00;;;31.80;45.30;;;;;;5073189;28;20460;-59
2023/08/22 10:35:17;;;;;;;7.90;4.33;;;32.00;43.90;;;;;;5073272;28;20496;-59
2023/08/22 10:37:47;;;;;;;5.27;4.10;;;31.90;43.00;;;;;;5073195;28;20432;-59
2023/08/22 10:40:21;;;;;;;4.83;4.33;;;31.70;42.30;;;;;;5073246;28;20787;-59
2023/08/22 10:42:52;;;;;;;6.67;4.37;;;31.70;44.30;;;;;;5072823;28;21027;-59
2023/08/22 10:45:20;;;;;;;7.23;4.03;;;31.50;43.70;;;;;;5073120;28;20480;-59
2023/08/22 10:47:49;;;;;;;8.30;3.57;;;31.40;44.40;;;;;;5073112;28;20459;-59
2023/08/22 10:50:16;;;;;;;4.50;3.53;;;31.40;45.80;;;;;;5073098;28;20471;-59
2023/08/22 10:52:43;;;;;;;7.07;3.87;;;31.40;45.20;;;;;;5072977;28;20828;-59
2023/08/22 10:55:13;;;;;;;7.67;3.97;;;31.50;44.50;;;;;;5072971;28;20448;-59
2023/08/22 10:57:42;;;;;;;9.33;3.87;;;31.90;44.40;;;;;;5072958;28;20435;-59
2023/08/22 11:00:21;;;;;;;7.00;5.27;;;32.30;44.20;;;;;;5073032;28;20440;-59
2023/08/22 11:02:51;;;;;;;5.53;4.60;;;32.70;43.00;;;;;;5072870;28;20474;-59
2023/08/22 11:05:18;;;;;;;5.80;5.17;;;32.70;42.50;;;;;;5072952;28;20463;-59
2023/08/22 11:07:46;;;;;;;6.40;5.00;;;32.70;43.20;;;;;;5072895;28;20444;-59
2023/08/22 11:10:15;;;;;;;8.77;6.00;;;32.50;42.80;;;;;;5072986;28;20561;-59
2023/08/22 11:12:43;;;;;;;7.20;5.10;;;32.30;43.60;;;;;;5072707;28;20563;-60
2023/08/22 11:15:11;;;;;;;3.93;3.47;;;32.10;44.40;;;;;;5072939;28;20819;-59
2023/08/22 11:17:40;;;;;;;8.30;5.87;;;32.10;44.80;;;;;;5072815;28;20452;-59
2023/08/22 11:20:12;;;;;;;6.70;5.40;;;32.00;44.10;;;;;;5072754;28;20436;-59
2023/08/22 11:22:40;;;;;;;9.03;5.30;;;32.00;44.50;;;;;;5072398;28;20985;-59
2023/08/22 11:25:07;;;;;;;5.27;4.43;;;32.00;42.80;;;;;;5072521;28;20937;-59
2023/08/22 11:27:37;;;;;;;7.20;4.90;;;32.00;44.80;;;;;;5072650;28;20444;-59
2023/08/22 11:30:05;;;;;;;6.50;5.87;;;32.00;43.60;;;;;;5072700;28;20492;-59
2023/08/22 11:32:34;;;;;;;9.67;5.87;;;31.90;44.00;;;;;;5074255;28;20490;-59
2023/08/22 11:35:03;;;;;;;7.63;5.80;;;31.90;44.20;;;;;;5076251;28;20444;-59
2023/08/22 11:37:32;;;;;;;5.70;5.07;;;32.00;45.70;;;;;;5076228;28;20482;-59
2023/08/22 11:39:59;;;;;;;9.40;5.50;;;32.00;45.00;;;;;;5076211;28;20485;-59
2023/08/22 11:42:30;;;;;;;8.27;5.53;;;31.90;44.90;;;;;;5076083;28;20468;-59
2023/08/22 11:45:05;;;;;;;6.17;4.90;;;32.00;44.00;;;;;;5076206;28;20428;-59
2023/08/22 11:47:38;;;;;;;4.53;4.13;;;32.10;44.20;;;;;;5075846;28;20906;-59
2023/08/22 11:50:06;;;;;;;7.23;5.37;;;32.80;44.20;;;;;;5076202;28;20510;-59
2023/08/22 11:52:34;;;;;;;5.90;3.90;;;33.50;42.60;;;;;;5076079;28;20468;-59
2023/08/22 11:55:05;;;;;;;6.03;4.30;;;34.10;41.40;;;;;;5075983;28;20444;-59
2023/08/22 11:57:32;;;;;;;10.33;5.23;;;34.70;41.50;;;;;;5075918;28;20470;-59
2023/08/22 12:00:00;;;;;;;6.33;5.53;;;35.30;40.70;;;;;;5075774;28;20432;-59
2023/08/22 12:02:27;;;;;;;9.93;5.30;;;35.40;39.20;;;;;;5075734;28;20456;-59
2023/08/22 12:04:55;;;;;;;10.80;5.63;;;35.60;37.90;;;;;;5075747;28;20206;-60
2023/08/22 12:07:22;;;;;;;10.03;5.93;;;36.10;36.40;;;;;;5075392;28;20210;-60
2023/08/22 12:09:59;;;;;;;8.70;5.80;;;36.30;35.50;;;;;;5075496;28;20224;-59
2023/08/22 12:12:27;;;;;;;6.13;3.70;;;36.40;35.80;;;;;;5075564;28;20232;-59
2023/08/22 12:14:53;;;;;;;6.60;4.70;;;36.40;36.30;;;;;;5076101;28;20209;-59
2023/08/22 12:17:20;;;;;;;5.70;4.80;;;36.60;36.60;;;;;;5075312;28;20202;-59
2023/08/22 12:19:47;;;;;;;4.93;3.63;;;36.60;36.00;;;;;;5075414;28;20560;-59
2023/08/22 12:22:13;;;;;;;4.00;3.53;;;37.00;35.20;;;;;;5075053;28;20241;-59
2023/08/22 12:24:44;;;;;;;6.50;4.18;;;37.30;34.20;;;;;;5075316;28;20224;-59
2023/08/22 12:27:12;;;;;;;8.10;2.55;;;38.00;32.90;;;;;;5075524;28;20209;-59
2023/08/22 12:29:40;;;;;;;3.13;2.60;;;38.30;31.40;;;;;;5075161;28;20217;-59
2023/08/22 12:32:07;;;;;;;6.20;3.22;;;38.40;32.20;;;;;;5075187;28;20233;-59
2023/08/22 12:34:33;;;;;;;4.13;3.70;;;38.30;31.70;;;;;;5075158;28;20209;-59
2023/08/22 12:37:00;;;;;;;3.67;2.20;;;38.00;31.20;;;;;;5075078;28;20581;-59
2023/08/22 12:39:27;;;;;;;4.47;3.70;;;37.70;31.30;;;;;;5075144;28;20205;-59
2023/08/22 12:41:53;;;;;;;5.13;4.28;;;38.00;32.00;;;;;;5074946;28;20230;-59
2023/08/22 12:44:21;;;;;;;5.70;3.83;;;38.70;30.40;;;;;;5074929;28;20198;-59
2023/08/22 12:46:48;;;;;;;9.20;3.97;;;39.40;29.40;;;;;;5075045;28;20213;-60